createdAt,value
2018-11-26T00:00:23.999Z,994.71
2018-11-26T00:01:24.171Z,994.70
2018-11-26T00:02:24.002Z,994.67
2018-11-26T00:03:23.923Z,994.67
2018-11-26T00:04:24.341Z,994.71
2018-11-26T00:05:23.890Z,994.69
2018-11-26T00:06:23.882Z,994.66
2018-11-26T00:07:23.863Z,994.63
2018-11-26T00:08:23.855Z,994.60
2018-11-26T00:09:23.851Z,994.56
2018-11-26T00:10:24.053Z,994.59
2018-11-26T00:11:23.932Z,994.58
2018-11-26T00:12:23.812Z,994.52
2018-11-26T00:13:23.799Z,994.56
2018-11-26T00:14:24.633Z,994.50
2018-11-26T00:15:23.781Z,994.56
2018-11-26T00:16:23.797Z,994.47
2018-11-26T00:17:23.758Z,994.45
2018-11-26T00:18:23.756Z,994.49
2018-11-26T00:19:23.731Z,994.46
2018-11-26T00:20:23.724Z,994.40
2018-11-26T00:21:23.712Z,994.51
2018-11-26T00:22:23.723Z,994.44
2018-11-26T00:23:23.697Z,994.49
2018-11-26T00:24:23.689Z,994.52
2018-11-26T00:25:23.673Z,994.44
2018-11-26T00:26:23.860Z,994.50
2018-11-26T00:27:23.646Z,994.51
2018-11-26T00:28:23.903Z,994.46
2018-11-26T00:29:23.666Z,994.51
2018-11-26T00:30:23.645Z,994.47
2018-11-26T00:31:24.072Z,994.43
2018-11-26T00:32:23.641Z,994.51
2018-11-26T00:33:23.763Z,994.49
2018-11-26T00:34:23.771Z,994.46
2018-11-26T00:35:23.589Z,994.48
2018-11-26T00:36:23.724Z,994.44
2018-11-26T00:37:23.643Z,994.42
2018-11-26T00:38:23.599Z,994.44
2018-11-26T00:39:23.517Z,994.42
2018-11-26T00:40:23.529Z,994.40
2018-11-26T00:41:23.514Z,994.39
2018-11-26T00:42:23.483Z,994.40
2018-11-26T00:43:23.486Z,994.38
2018-11-26T00:44:23.546Z,994.37
2018-11-26T00:45:23.613Z,994.35
2018-11-26T00:46:23.460Z,994.38
2018-11-26T00:47:23.442Z,994.35
2018-11-26T00:48:23.440Z,994.35
2018-11-26T00:49:23.413Z,994.32
2018-11-26T00:50:23.430Z,994.30
2018-11-26T00:51:23.385Z,994.32
2018-11-26T00:52:23.398Z,994.31
2018-11-26T00:53:23.505Z,994.33
2018-11-26T00:54:24.467Z,994.36
2018-11-26T00:55:23.387Z,994.33
2018-11-26T00:56:23.355Z,994.35
2018-11-26T00:57:23.332Z,994.39
2018-11-26T00:58:23.322Z,994.33
2018-11-26T00:59:23.304Z,994.32
2018-11-26T01:00:23.313Z,994.31
2018-11-26T01:01:23.286Z,994.35
2018-11-26T01:02:23.277Z,994.35
2018-11-26T01:03:23.499Z,994.35
2018-11-26T01:04:23.247Z,994.36
2018-11-26T01:05:23.238Z,994.32
2018-11-26T01:06:23.246Z,994.31
2018-11-26T01:07:23.224Z,994.28
2018-11-26T01:08:23.217Z,994.30
2018-11-26T01:09:23.203Z,994.32
2018-11-26T01:10:23.276Z,994.34
2018-11-26T01:11:23.693Z,994.30
2018-11-26T01:12:24.507Z,994.27
2018-11-26T01:13:23.151Z,994.28
2018-11-26T01:14:23.145Z,994.33
2018-11-26T01:15:23.138Z,994.28
2018-11-26T01:16:23.147Z,994.25
2018-11-26T01:17:23.116Z,994.23
2018-11-26T01:18:24.443Z,994.23
2018-11-26T01:19:23.324Z,994.24
2018-11-26T01:20:23.091Z,994.24
2018-11-26T01:21:24.917Z,994.22
2018-11-26T01:22:23.059Z,994.26
2018-11-26T01:23:24.822Z,994.27
2018-11-26T01:24:23.396Z,994.27
2018-11-26T01:25:23.169Z,994.24
2018-11-26T01:26:23.092Z,994.28
2018-11-26T01:27:23.215Z,994.25
2018-11-26T01:28:23.031Z,994.33
2018-11-26T01:29:23.220Z,994.28
2018-11-26T01:30:23.202Z,994.26
2018-11-26T01:31:23.525Z,994.27
2018-11-26T01:32:23.269Z,994.29
2018-11-26T01:33:22.943Z,994.30
2018-11-26T01:34:22.947Z,994.30
2018-11-26T01:35:22.928Z,994.30
2018-11-26T01:36:22.917Z,994.28
2018-11-26T01:37:22.903Z,994.28
2018-11-26T01:38:22.891Z,994.28
2018-11-26T01:39:22.899Z,994.27
2018-11-26T01:40:22.871Z,994.28
2018-11-26T01:41:22.853Z,994.31
2018-11-26T01:42:22.848Z,994.31
2018-11-26T01:43:22.837Z,994.31
2018-11-26T01:44:22.818Z,994.32
2018-11-26T01:45:22.853Z,994.33
2018-11-26T01:46:22.798Z,994.32
2018-11-26T01:47:22.785Z,994.32
2018-11-26T01:48:22.878Z,994.33
2018-11-26T01:49:22.769Z,994.32
2018-11-26T01:50:24.094Z,994.33
2018-11-26T01:51:22.772Z,994.36
2018-11-26T01:52:22.919Z,994.36
2018-11-26T01:53:22.728Z,994.37
2018-11-26T01:54:22.715Z,994.43
2018-11-26T01:55:22.700Z,994.40
2018-11-26T01:56:22.683Z,994.41
2018-11-26T01:57:22.727Z,994.42
2018-11-26T01:58:22.667Z,994.46
2018-11-26T01:59:22.660Z,994.45
2018-11-26T02:00:23.420Z,994.44
2018-11-26T02:01:22.638Z,994.42
2018-11-26T02:02:22.627Z,994.38
2018-11-26T02:03:22.616Z,994.42
2018-11-26T02:04:22.619Z,994.36
2018-11-26T02:05:23.242Z,994.39
2018-11-26T02:06:22.580Z,994.42
2018-11-26T02:07:22.570Z,994.37
2018-11-26T02:08:22.558Z,994.36
2018-11-26T02:09:22.767Z,994.34
2018-11-26T02:10:22.566Z,994.36
2018-11-26T02:11:22.530Z,994.38
2018-11-26T02:12:22.528Z,994.35
2018-11-26T02:13:22.510Z,994.36
2018-11-26T02:14:22.496Z,994.42
2018-11-26T02:15:22.936Z,994.38
2018-11-26T02:16:22.483Z,994.34
2018-11-26T02:17:22.466Z,994.29
2018-11-26T02:18:23.374Z,994.34
2018-11-26T02:19:23.764Z,994.31
2018-11-26T02:20:23.325Z,994.35
2018-11-26T02:21:22.412Z,994.35
2018-11-26T02:22:22.410Z,994.30
2018-11-26T02:23:22.398Z,994.31
2018-11-26T02:24:22.386Z,994.30
2018-11-26T02:25:22.392Z,994.28
2018-11-26T02:26:22.366Z,994.32
2018-11-26T02:27:22.351Z,994.35
2018-11-26T02:28:22.336Z,994.30
2018-11-26T02:29:22.617Z,994.32
2018-11-26T02:30:22.346Z,994.40
2018-11-26T02:31:22.307Z,994.28
2018-11-26T02:32:22.318Z,994.33
2018-11-26T02:33:22.312Z,994.30
2018-11-26T02:34:22.273Z,994.32
2018-11-26T02:35:22.289Z,994.32
2018-11-26T02:36:22.247Z,994.32
2018-11-26T02:37:22.250Z,994.34
2018-11-26T02:38:22.243Z,994.31
2018-11-26T02:39:22.217Z,994.28
2018-11-26T02:40:22.231Z,994.30
2018-11-26T02:41:22.199Z,994.24
2018-11-26T02:42:22.404Z,994.26
2018-11-26T02:43:22.213Z,994.26
2018-11-26T02:44:22.234Z,994.26
2018-11-26T02:45:22.176Z,994.24
2018-11-26T02:46:22.459Z,994.24
2018-11-26T02:47:22.277Z,994.27
2018-11-26T02:48:22.120Z,994.23
2018-11-26T02:49:22.107Z,994.24
2018-11-26T02:50:22.106Z,994.17
2018-11-26T02:51:23.269Z,994.22
2018-11-26T02:52:22.111Z,994.23
2018-11-26T02:53:22.099Z,994.18
2018-11-26T02:54:22.188Z,994.19
2018-11-26T02:55:22.172Z,994.21
2018-11-26T02:56:22.039Z,994.18
2018-11-26T02:57:22.030Z,994.21
2018-11-26T02:58:22.025Z,994.18
2018-11-26T02:59:22.006Z,994.23
2018-11-26T03:00:22.025Z,994.25
2018-11-26T03:01:21.987Z,994.24
2018-11-26T03:02:21.969Z,994.24
2018-11-26T03:03:21.968Z,994.25
2018-11-26T03:04:21.946Z,994.24
2018-11-26T03:05:21.965Z,994.22
2018-11-26T03:06:21.925Z,994.17
2018-11-26T03:07:22.002Z,994.20
2018-11-26T03:08:21.921Z,994.21
2018-11-26T03:09:21.894Z,994.21
2018-11-26T03:10:21.879Z,994.19
2018-11-26T03:11:22.840Z,994.20
2018-11-26T03:12:22.035Z,994.22
2018-11-26T03:13:21.898Z,994.18
2018-11-26T03:14:21.839Z,994.17
2018-11-26T03:15:21.855Z,994.13
2018-11-26T03:16:21.988Z,994.15
2018-11-26T03:17:21.929Z,994.12
2018-11-26T03:18:21.794Z,994.13
2018-11-26T03:19:21.962Z,994.11
2018-11-26T03:20:21.773Z,994.12
2018-11-26T03:21:22.181Z,994.08
2018-11-26T03:22:21.756Z,994.08
2018-11-26T03:23:21.739Z,994.11
2018-11-26T03:24:21.794Z,994.11
2018-11-26T03:25:21.717Z,994.12
2018-11-26T03:26:21.882Z,994.14
2018-11-26T03:27:21.716Z,994.14
2018-11-26T03:28:21.997Z,994.13
2018-11-26T03:29:21.672Z,994.17
2018-11-26T03:30:21.679Z,994.17
2018-11-26T03:31:21.656Z,994.16
2018-11-26T03:32:21.638Z,994.20
2018-11-26T03:33:21.632Z,994.21
2018-11-26T03:34:21.626Z,994.22
2018-11-26T03:35:21.859Z,994.23
2018-11-26T03:36:21.642Z,994.22
2018-11-26T03:37:21.735Z,994.26
2018-11-26T03:38:21.569Z,994.22
2018-11-26T03:39:21.571Z,994.25
2018-11-26T03:40:22.039Z,994.32
2018-11-26T03:41:21.570Z,994.29
2018-11-26T03:42:21.555Z,994.29
2018-11-26T03:43:21.523Z,994.32
2018-11-26T03:44:21.515Z,994.30
2018-11-26T03:45:21.520Z,994.28
2018-11-26T03:46:21.659Z,994.35
2018-11-26T03:47:21.480Z,994.34
2018-11-26T03:48:21.646Z,994.39
2018-11-26T03:49:21.461Z,994.39
2018-11-26T03:50:21.443Z,994.40
2018-11-26T03:51:21.450Z,994.43
2018-11-26T03:52:21.420Z,994.44
2018-11-26T03:53:21.417Z,994.44
2018-11-26T03:54:21.799Z,994.45
2018-11-26T03:55:21.461Z,994.43
2018-11-26T03:56:21.608Z,994.43
2018-11-26T03:57:21.483Z,994.40
2018-11-26T03:58:21.357Z,994.41
2018-11-26T03:59:21.643Z,994.42
2018-11-26T04:00:21.335Z,994.43
2018-11-26T04:01:21.339Z,994.44
2018-11-26T04:02:21.351Z,994.46
2018-11-26T04:03:21.325Z,994.42
2018-11-26T04:04:21.293Z,994.46
2018-11-26T04:05:21.288Z,994.43
2018-11-26T04:06:23.185Z,994.42
2018-11-26T04:07:21.255Z,994.44
2018-11-26T04:08:21.330Z,994.42
2018-11-26T04:09:21.257Z,994.46
2018-11-26T04:10:22.773Z,994.45
2018-11-26T04:11:21.340Z,994.45
2018-11-26T04:12:21.243Z,994.48
2018-11-26T04:13:21.240Z,994.47
2018-11-26T04:14:21.296Z,994.49
2018-11-26T04:15:21.197Z,994.50
2018-11-26T04:16:21.161Z,994.47
2018-11-26T04:17:21.148Z,994.47
2018-11-26T04:18:21.140Z,994.49
2018-11-26T04:19:21.125Z,994.44
2018-11-26T04:20:21.117Z,994.47
2018-11-26T04:21:21.169Z,994.44
2018-11-26T04:22:21.107Z,994.45
2018-11-26T04:23:21.102Z,994.43
2018-11-26T04:24:21.108Z,994.39
2018-11-26T04:25:21.066Z,994.37
2018-11-26T04:26:21.057Z,994.40
2018-11-26T04:27:21.034Z,994.35
2018-11-26T04:28:21.054Z,994.41
2018-11-26T04:29:21.023Z,994.38
2018-11-26T04:30:21.148Z,994.38
2018-11-26T04:31:21.015Z,994.38
2018-11-26T04:32:20.987Z,994.44
2018-11-26T04:33:21.043Z,994.42
2018-11-26T04:34:21.098Z,994.45
2018-11-26T04:35:21.065Z,994.45
2018-11-26T04:36:21.129Z,994.44
2018-11-26T04:37:21.254Z,994.40
2018-11-26T04:38:20.930Z,994.41
2018-11-26T04:39:21.085Z,994.40
2018-11-26T04:40:20.902Z,994.45
2018-11-26T04:41:20.887Z,994.48
2018-11-26T04:42:20.878Z,994.46
2018-11-26T04:43:21.262Z,994.43
2018-11-26T04:44:20.858Z,994.45
2018-11-26T04:45:20.989Z,994.47
2018-11-26T04:46:21.079Z,994.44
2018-11-26T04:47:21.196Z,994.45
2018-11-26T04:48:20.912Z,994.45
2018-11-26T04:49:20.877Z,994.43
2018-11-26T04:50:23.823Z,994.45
2018-11-26T04:51:20.848Z,994.44
2018-11-26T04:52:20.774Z,994.47
2018-11-26T04:53:20.755Z,994.42
2018-11-26T04:54:20.869Z,994.39
2018-11-26T04:55:20.809Z,994.41
2018-11-26T04:56:20.742Z,994.40
2018-11-26T04:57:20.733Z,994.40
2018-11-26T04:58:20.743Z,994.40
2018-11-26T04:59:20.692Z,994.37
2018-11-26T05:00:20.817Z,994.37
2018-11-26T05:01:21.110Z,994.35
2018-11-26T05:02:20.662Z,994.35
2018-11-26T05:03:20.818Z,994.34
2018-11-26T05:04:20.660Z,994.32
2018-11-26T05:05:20.629Z,994.35
2018-11-26T05:06:20.611Z,994.33
2018-11-26T05:07:20.607Z,994.30
2018-11-26T05:08:20.595Z,994.28
2018-11-26T05:09:20.707Z,994.27
2018-11-26T05:10:20.600Z,994.30
2018-11-26T05:11:20.588Z,994.28
2018-11-26T05:12:21.353Z,994.27
2018-11-26T05:13:20.542Z,994.21
2018-11-26T05:14:20.532Z,994.22
2018-11-26T05:15:20.519Z,994.17
2018-11-26T05:16:20.524Z,994.19
2018-11-26T05:17:20.499Z,994.18
2018-11-26T05:18:20.511Z,994.18
2018-11-26T05:19:20.472Z,994.19
2018-11-26T05:20:20.465Z,994.18
2018-11-26T05:21:20.453Z,994.18
2018-11-26T05:22:20.440Z,994.15
2018-11-26T05:23:20.473Z,994.14
2018-11-26T05:24:20.423Z,994.17
2018-11-26T05:25:20.413Z,994.13
2018-11-26T05:26:20.412Z,994.15
2018-11-26T05:27:20.417Z,994.16
2018-11-26T05:28:20.381Z,994.17
2018-11-26T05:29:20.376Z,994.19
2018-11-26T05:30:20.354Z,994.22
2018-11-26T05:31:20.350Z,994.22
2018-11-26T05:32:20.340Z,994.21
2018-11-26T05:33:20.346Z,994.17
2018-11-26T05:34:20.313Z,994.21
2018-11-26T05:35:20.308Z,994.23
2018-11-26T05:36:20.294Z,994.24
2018-11-26T05:37:20.287Z,994.25
2018-11-26T05:38:20.284Z,994.26
2018-11-26T05:39:20.275Z,994.26
2018-11-26T05:40:20.265Z,994.24
2018-11-26T05:41:20.238Z,994.26
2018-11-26T05:42:21.201Z,994.32
2018-11-26T05:43:21.394Z,994.31
2018-11-26T05:44:20.285Z,994.27
2018-11-26T05:45:20.213Z,994.31
2018-11-26T05:46:20.191Z,994.36
2018-11-26T05:47:20.353Z,994.32
2018-11-26T05:48:20.168Z,994.36
2018-11-26T05:49:20.156Z,994.36
2018-11-26T05:50:20.148Z,994.32
2018-11-26T05:51:20.132Z,994.32
2018-11-26T05:52:20.121Z,994.35
2018-11-26T05:53:20.138Z,994.29
2018-11-26T05:54:20.099Z,994.31
2018-11-26T05:55:21.285Z,994.31
2018-11-26T05:56:20.082Z,994.31
2018-11-26T05:57:20.071Z,994.33
2018-11-26T05:58:20.068Z,994.31
2018-11-26T05:59:20.066Z,994.32
2018-11-26T06:00:20.038Z,994.31
2018-11-26T06:01:20.027Z,994.25
2018-11-26T06:02:20.069Z,994.26
2018-11-26T06:03:20.011Z,994.27
2018-11-26T06:04:21.309Z,994.30
2018-11-26T06:05:20.074Z,994.30
2018-11-26T06:06:19.982Z,994.34
2018-11-26T06:07:20.233Z,994.29
2018-11-26T06:08:19.957Z,994.34
2018-11-26T06:09:20.130Z,994.36
2018-11-26T06:10:19.942Z,994.35
2018-11-26T06:11:19.918Z,994.34
2018-11-26T06:12:19.932Z,994.36
2018-11-26T06:13:19.930Z,994.33
2018-11-26T06:14:19.902Z,994.39
2018-11-26T06:15:19.881Z,994.36
2018-11-26T06:16:19.868Z,994.33
2018-11-26T06:17:19.858Z,994.35
2018-11-26T06:18:19.857Z,994.36
2018-11-26T06:19:19.874Z,994.39
2018-11-26T06:20:19.839Z,994.37
2018-11-26T06:21:19.816Z,994.37
2018-11-26T06:22:19.812Z,994.37
2018-11-26T06:23:19.885Z,994.35
2018-11-26T06:24:19.920Z,994.37
2018-11-26T06:25:19.893Z,994.38
2018-11-26T06:26:19.784Z,994.37
2018-11-26T06:27:19.987Z,994.38
2018-11-26T06:28:19.740Z,994.40
2018-11-26T06:29:19.729Z,994.38
2018-11-26T06:30:19.720Z,994.41
2018-11-26T06:31:19.731Z,994.43
2018-11-26T06:32:19.698Z,994.39
2018-11-26T06:33:19.708Z,994.40
2018-11-26T06:34:19.672Z,994.39
2018-11-26T06:35:19.672Z,994.38
2018-11-26T06:36:19.655Z,994.37
2018-11-26T06:37:19.649Z,994.39
2018-11-26T06:38:19.647Z,994.44
2018-11-26T06:39:19.650Z,994.43
2018-11-26T06:40:19.946Z,994.47
2018-11-26T06:41:19.630Z,994.47
2018-11-26T06:42:19.594Z,994.50
2018-11-26T06:43:21.605Z,994.50
2018-11-26T06:44:19.572Z,994.52
2018-11-26T06:45:20.275Z,994.53
2018-11-26T06:46:19.853Z,994.54
2018-11-26T06:47:19.750Z,994.55
2018-11-26T06:48:19.837Z,994.60
2018-11-26T06:49:19.703Z,994.67
2018-11-26T06:50:19.643Z,994.64
2018-11-26T06:51:19.913Z,994.68
2018-11-26T06:52:19.611Z,994.63
2018-11-26T06:53:19.741Z,994.66
2018-11-26T06:54:19.852Z,994.61
2018-11-26T06:55:19.478Z,994.66
2018-11-26T06:56:19.815Z,994.66
2018-11-26T06:57:19.472Z,994.68
2018-11-26T06:58:19.581Z,994.68
2018-11-26T06:59:19.850Z,994.70
2018-11-26T07:00:19.444Z,994.72
2018-11-26T07:01:19.748Z,994.72
2018-11-26T07:02:19.600Z,994.75
2018-11-26T07:03:19.367Z,994.80
2018-11-26T07:04:19.421Z,994.76
2018-11-26T07:05:19.412Z,994.81
2018-11-26T07:06:19.396Z,994.78
2018-11-26T07:07:19.637Z,994.79
2018-11-26T07:08:19.498Z,994.79
2018-11-26T07:09:19.627Z,994.85
2018-11-26T07:10:19.349Z,994.81
2018-11-26T07:11:19.361Z,994.83
2018-11-26T07:12:19.275Z,994.82
2018-11-26T07:13:19.308Z,994.85
2018-11-26T07:14:19.281Z,994.89
2018-11-26T07:15:19.311Z,994.90
2018-11-26T07:16:19.224Z,994.87
2018-11-26T07:17:19.212Z,994.89
2018-11-26T07:18:19.240Z,994.92
2018-11-26T07:19:19.221Z,994.91
2018-11-26T07:20:20.215Z,994.97
2018-11-26T07:21:19.226Z,994.97
2018-11-26T07:22:19.195Z,994.92
2018-11-26T07:23:19.151Z,994.96
2018-11-26T07:24:19.215Z,994.91
2018-11-26T07:25:19.163Z,995.01
2018-11-26T07:26:19.151Z,994.97
2018-11-26T07:27:19.116Z,994.97
2018-11-26T07:28:19.733Z,994.93
2018-11-26T07:29:24.001Z,994.98
2018-11-26T07:30:20.128Z,994.99
2018-11-26T07:31:19.084Z,994.98
2018-11-26T07:32:19.148Z,995.06
2018-11-26T07:33:19.046Z,995.06
2018-11-26T07:34:19.052Z,995.07
2018-11-26T07:35:19.021Z,995.07
2018-11-26T07:36:19.053Z,995.06
2018-11-26T07:37:18.998Z,995.08
2018-11-26T07:38:19.033Z,995.13
2018-11-26T07:39:19.046Z,995.08
2018-11-26T07:40:18.981Z,995.14
2018-11-26T07:41:18.957Z,995.13
2018-11-26T07:42:18.944Z,995.15
2018-11-26T07:43:18.935Z,995.14
2018-11-26T07:44:19.159Z,995.14
2018-11-26T07:45:18.910Z,995.14
2018-11-26T07:46:18.907Z,995.18
2018-11-26T07:47:18.883Z,995.20
2018-11-26T07:48:18.957Z,995.16
2018-11-26T07:49:18.943Z,995.20
2018-11-26T07:50:18.854Z,995.22
2018-11-26T07:51:18.864Z,995.20
2018-11-26T07:52:19.229Z,995.26
2018-11-26T07:53:19.660Z,995.22
2018-11-26T07:54:18.839Z,995.23
2018-11-26T07:55:18.803Z,995.29
2018-11-26T07:56:18.811Z,995.27
2018-11-26T07:57:19.085Z,995.29
2018-11-26T07:58:18.878Z,995.31
2018-11-26T07:59:18.866Z,995.34
2018-11-26T08:00:18.754Z,995.36
2018-11-26T08:01:18.765Z,995.32
2018-11-26T08:02:18.799Z,995.30
2018-11-26T08:03:18.717Z,995.36
2018-11-26T08:04:18.751Z,995.38
2018-11-26T08:05:18.797Z,995.38
2018-11-26T08:06:18.701Z,995.43
2018-11-26T08:07:18.669Z,995.48
2018-11-26T08:08:18.658Z,995.48
2018-11-26T08:09:18.706Z,995.45
2018-11-26T08:10:18.636Z,995.49
2018-11-26T08:11:18.636Z,995.45
2018-11-26T08:12:18.671Z,995.46
2018-11-26T08:13:18.677Z,995.49
2018-11-26T08:14:18.590Z,995.50
2018-11-26T08:15:18.603Z,995.47
2018-11-26T08:16:18.577Z,995.49
2018-11-26T08:17:18.565Z,995.51
2018-11-26T08:18:18.553Z,995.53
2018-11-26T08:19:18.555Z,995.54
2018-11-26T08:20:18.635Z,995.51
2018-11-26T08:21:18.529Z,995.58
2018-11-26T08:22:18.507Z,995.54
2018-11-26T08:23:18.499Z,995.56
2018-11-26T08:24:18.509Z,995.59
2018-11-26T08:25:19.782Z,995.65
2018-11-26T08:26:18.483Z,995.60
2018-11-26T08:27:18.840Z,995.62
2018-11-26T08:28:18.453Z,995.60
2018-11-26T08:29:18.437Z,995.63
2018-11-26T08:30:18.589Z,995.62
2018-11-26T08:31:18.407Z,995.65
2018-11-26T08:32:18.466Z,995.64
2018-11-26T08:33:18.499Z,995.62
2018-11-26T08:34:18.491Z,995.67
2018-11-26T08:35:18.529Z,995.60
2018-11-26T08:36:18.418Z,995.63
2018-11-26T08:37:18.422Z,995.68
2018-11-26T08:38:18.340Z,995.68
2018-11-26T08:39:18.350Z,995.67
2018-11-26T08:40:18.313Z,995.75
2018-11-26T08:41:18.366Z,995.72
2018-11-26T08:42:18.546Z,995.72
2018-11-26T08:43:19.873Z,995.72
2018-11-26T08:44:18.279Z,995.76
2018-11-26T08:45:18.409Z,995.79
2018-11-26T08:46:18.296Z,995.74
2018-11-26T08:47:18.301Z,995.76
2018-11-26T08:48:18.245Z,995.81
2018-11-26T08:49:18.260Z,995.78
2018-11-26T08:50:18.358Z,995.79
2018-11-26T08:51:18.444Z,995.85
2018-11-26T08:52:18.239Z,995.78
2018-11-26T08:53:18.176Z,995.78
2018-11-26T08:54:18.166Z,995.81
2018-11-26T08:55:18.194Z,995.79
2018-11-26T08:56:18.142Z,995.74
2018-11-26T08:57:18.134Z,995.74
2018-11-26T08:58:18.126Z,995.77
2018-11-26T08:59:18.105Z,995.80
2018-11-26T09:00:18.096Z,995.79
2018-11-26T09:01:18.115Z,995.81
2018-11-26T09:02:18.137Z,995.80
2018-11-26T09:03:18.066Z,995.80
2018-11-26T09:04:18.053Z,995.75
2018-11-26T09:05:23.881Z,995.76
2018-11-26T09:06:18.031Z,995.79
2018-11-26T09:07:18.045Z,995.80
2018-11-26T09:08:18.013Z,995.80
2018-11-26T09:09:18.020Z,995.79
2018-11-26T09:10:18.047Z,995.81
2018-11-26T09:11:18.003Z,995.79
2018-11-26T09:12:17.967Z,995.81
2018-11-26T09:13:17.956Z,995.78
2018-11-26T09:14:17.997Z,995.77
2018-11-26T09:15:18.875Z,995.80
2018-11-26T09:16:18.128Z,995.84
2018-11-26T09:17:18.087Z,995.84
2018-11-26T09:18:17.900Z,995.80
2018-11-26T09:19:18.025Z,995.88
2018-11-26T09:20:17.906Z,995.82
2018-11-26T09:21:17.872Z,995.88
2018-11-26T09:22:17.901Z,995.91
2018-11-26T09:23:17.847Z,995.87
2018-11-26T09:24:17.869Z,995.91
2018-11-26T09:25:17.823Z,995.91
2018-11-26T09:26:17.833Z,995.99
2018-11-26T09:27:18.000Z,996.00
2018-11-26T09:28:17.829Z,996.04
2018-11-26T09:29:17.894Z,996.03
2018-11-26T09:30:17.804Z,996.15
2018-11-26T09:31:17.826Z,996.10
2018-11-26T09:32:17.877Z,996.13
2018-11-26T09:33:17.745Z,996.06
2018-11-26T09:34:17.734Z,996.05
2018-11-26T09:35:18.066Z,996.11
2018-11-26T09:36:18.071Z,996.10
2018-11-26T09:37:17.781Z,996.06
2018-11-26T09:38:17.997Z,996.08
2018-11-26T09:39:17.679Z,996.16
2018-11-26T09:40:17.715Z,996.11
2018-11-26T09:41:17.767Z,996.15
2018-11-26T09:42:17.647Z,996.11
2018-11-26T09:43:17.632Z,996.14
2018-11-26T09:44:17.637Z,996.11
2018-11-26T09:45:21.372Z,996.11
2018-11-26T09:46:18.183Z,996.09
2018-11-26T09:47:17.592Z,996.11
2018-11-26T09:48:17.584Z,996.12
2018-11-26T09:49:18.192Z,996.14
2018-11-26T09:50:17.556Z,996.11
2018-11-26T09:51:17.552Z,996.13
2018-11-26T09:52:17.541Z,996.14
2018-11-26T09:53:17.609Z,996.13
2018-11-26T09:54:18.277Z,996.17
2018-11-26T09:55:20.030Z,996.16
2018-11-26T09:56:17.492Z,996.14
2018-11-26T09:57:17.480Z,996.22
2018-11-26T09:58:17.512Z,996.19
2018-11-26T09:59:18.197Z,996.19
2018-11-26T10:00:17.456Z,996.20
2018-11-26T10:01:17.459Z,996.19
2018-11-26T10:02:17.437Z,996.23
2018-11-26T10:03:17.424Z,996.22
2018-11-26T10:04:17.404Z,996.19
2018-11-26T10:05:17.401Z,996.21
2018-11-26T10:06:17.410Z,996.20
2018-11-26T10:07:17.378Z,996.20
2018-11-26T10:08:17.536Z,996.23
2018-11-26T10:09:17.352Z,996.24
2018-11-26T10:10:17.649Z,996.24
2018-11-26T10:11:17.345Z,996.24
2018-11-26T10:12:17.345Z,996.25
2018-11-26T10:13:18.369Z,996.25
2018-11-26T10:14:17.380Z,996.28
2018-11-26T10:15:17.312Z,996.25
2018-11-26T10:16:18.293Z,996.24
2018-11-26T10:17:17.452Z,996.23
2018-11-26T10:18:17.568Z,996.20
2018-11-26T10:19:17.799Z,996.19
2018-11-26T10:20:17.254Z,996.21
2018-11-26T10:21:17.247Z,996.20
2018-11-26T10:22:17.258Z,996.19
2018-11-26T10:23:17.205Z,996.20
2018-11-26T10:24:17.196Z,996.20
2018-11-26T10:25:17.244Z,996.20
2018-11-26T10:26:17.344Z,996.19
2018-11-26T10:27:17.213Z,996.22
2018-11-26T10:28:17.168Z,996.19
2018-11-26T10:29:17.179Z,996.22
2018-11-26T10:30:17.246Z,996.20
2018-11-26T10:31:17.178Z,996.19
2018-11-26T10:32:17.198Z,996.17
2018-11-26T10:33:17.942Z,996.13
2018-11-26T10:34:17.092Z,996.16
2018-11-26T10:35:17.070Z,996.13
2018-11-26T10:36:17.123Z,996.10
2018-11-26T10:37:17.054Z,996.12
2018-11-26T10:38:17.041Z,996.09
2018-11-26T10:39:17.062Z,996.13
2018-11-26T10:40:17.243Z,996.13
2018-11-26T10:41:17.048Z,996.11
2018-11-26T10:42:16.996Z,996.09
2018-11-26T10:43:18.205Z,996.06
2018-11-26T10:44:16.983Z,996.08
2018-11-26T10:45:16.973Z,996.11
2018-11-26T10:46:16.988Z,996.08
2018-11-26T10:47:16.947Z,996.09
2018-11-26T10:48:16.935Z,996.13
2018-11-26T10:49:16.924Z,996.16
2018-11-26T10:50:16.907Z,996.10
2018-11-26T10:51:16.938Z,996.14
2018-11-26T10:52:16.914Z,996.16
2018-11-26T10:53:16.879Z,996.09
2018-11-26T10:54:16.907Z,996.11
2018-11-26T10:55:16.890Z,996.14
2018-11-26T10:56:16.865Z,996.15
2018-11-26T10:57:16.999Z,996.13
2018-11-26T10:58:19.113Z,996.13
2018-11-26T10:59:23.983Z,996.14
2018-11-26T11:00:16.838Z,996.08
2018-11-26T11:01:16.907Z,996.05
2018-11-26T11:02:16.807Z,996.08
2018-11-26T11:03:17.851Z,996.06
2018-11-26T11:04:16.774Z,996.09
2018-11-26T11:05:16.743Z,996.06
2018-11-26T11:06:16.757Z,996.11
2018-11-26T11:07:16.976Z,996.09
2018-11-26T11:08:17.783Z,996.13
2018-11-26T11:09:16.702Z,996.13
2018-11-26T11:10:16.690Z,996.11
2018-11-26T11:11:23.173Z,996.14
2018-11-26T11:12:17.687Z,996.15
2018-11-26T11:13:16.659Z,996.15
2018-11-26T11:14:16.651Z,996.22
2018-11-26T11:15:16.654Z,996.17
2018-11-26T11:16:16.642Z,996.16
2018-11-26T11:17:16.623Z,996.16
2018-11-26T11:18:17.024Z,996.20
2018-11-26T11:19:16.705Z,996.22
2018-11-26T11:20:16.645Z,996.20
2018-11-26T11:21:16.585Z,996.22
2018-11-26T11:22:16.586Z,996.20
2018-11-26T11:23:16.546Z,996.24
2018-11-26T11:24:16.560Z,996.21
2018-11-26T11:25:16.529Z,996.23
2018-11-26T11:26:16.530Z,996.26
2018-11-26T11:27:16.562Z,996.24
2018-11-26T11:28:16.498Z,996.26
2018-11-26T11:29:16.482Z,996.28
2018-11-26T11:30:16.484Z,996.25
2018-11-26T11:31:16.459Z,996.27
2018-11-26T11:32:16.474Z,996.24
2018-11-26T11:33:45.249Z,996.32
2018-11-26T11:34:45.231Z,996.30
2018-11-26T11:35:45.222Z,996.26
2018-11-26T11:36:45.212Z,996.28
2018-11-26T11:37:45.242Z,996.25
2018-11-26T11:38:45.229Z,996.31
2018-11-26T11:39:45.180Z,996.22
2018-11-26T11:40:45.197Z,996.24
2018-11-26T11:41:45.160Z,996.19
2018-11-26T11:42:45.209Z,996.19
2018-11-26T11:43:45.165Z,996.16
2018-11-26T11:44:45.126Z,996.19
2018-11-26T11:45:45.200Z,996.21
2018-11-26T11:46:45.098Z,996.16
2018-11-26T11:47:45.090Z,996.18
2018-11-26T11:48:45.160Z,996.15
2018-11-26T11:49:45.397Z,996.19
2018-11-26T11:50:45.110Z,996.17
2018-11-26T11:51:45.082Z,996.18
2018-11-26T11:52:46.016Z,996.20
2018-11-26T11:53:45.047Z,996.14
2018-11-26T11:54:45.086Z,996.14
2018-11-26T11:55:45.038Z,996.14
2018-11-26T11:56:45.136Z,996.11
2018-11-26T11:57:44.980Z,996.10
2018-11-26T11:58:45.165Z,996.13
2018-11-26T11:59:45.104Z,996.07
2018-11-26T12:00:44.975Z,996.06
2018-11-26T12:01:44.936Z,996.08
2018-11-26T12:02:44.955Z,996.05
2018-11-26T12:03:44.933Z,996.07
2018-11-26T12:04:44.957Z,996.07
2018-11-26T12:05:44.901Z,996.05
2018-11-26T12:06:44.918Z,996.07
2018-11-26T12:07:51.907Z,996.08
2018-11-26T12:08:44.866Z,996.13
2018-11-26T12:09:44.878Z,996.06
2018-11-26T12:10:44.867Z,996.04
2018-11-26T12:11:44.852Z,996.06
2018-11-26T12:12:44.824Z,996.06
2018-11-26T12:13:44.810Z,996.06
2018-11-26T12:14:44.816Z,996.10
2018-11-26T12:15:45.219Z,996.10
2018-11-26T12:16:44.779Z,996.10
2018-11-26T12:17:45.167Z,996.03
2018-11-26T12:18:44.857Z,996.06
2018-11-26T12:19:44.800Z,996.07
2018-11-26T12:20:45.093Z,996.05
2018-11-26T12:21:51.808Z,996.08
2018-11-26T12:22:44.725Z,996.08
2018-11-26T12:23:44.728Z,996.08
2018-11-26T12:24:44.690Z,996.04
2018-11-26T12:25:44.709Z,996.07
2018-11-26T12:26:44.700Z,996.08
2018-11-26T12:27:44.712Z,996.09
2018-11-26T12:28:44.674Z,996.07